Fizuli, Azerbaijan
Current Conditions -  °F | °C
As of 8:00 PM on Saturday 22 Nov 2014 (Local Time) from UBEE Reporting Station
Haze Haze  
Wind Chill: 45°   Ceiling: 2300
Heat Index: 48°   Visibility: 3mi
Dew Point: 46°   Wind: 8mph
Humidity: 93%   Direction: 320°NW
Pressure: 29.83"   Gusts: NA
Location:  39.6°N, 47.15°E
Report Text: UBEE 221500Z 32007KT 5000 BR SCT013OVC023 09/08 Q1010 R30/290160 NOSIG
Loading
Personal Weather Stations






























Interactive Weather Map New forecast layout! Learn more

10-Day Weather Forecast

Advertisements
Track Severe Weather on mobile